sensor_id;sensor_type;location;lat;lon;timestamp;pressure;altitude;pressure_sealevel;temperature;humidity
19210;BME280;9738;51.654;14.238;2023-04-01T00:00:56;98640.66;;;9.13;100.00
19210;BME280;9738;51.654;14.238;2023-04-01T00:03:24;98644.13;;;9.13;100.00
19210;BME280;9738;51.654;14.238;2023-04-01T00:05:51;98641.84;;;9.10;100.00
19210;BME280;9738;51.654;14.238;2023-04-01T00:08:17;98637.78;;;9.14;100.00
19210;BME280;9738;51.654;14.238;2023-04-01T00:10:43;98638.19;;;9.11;100.00
19210;BME280;9738;51.654;14.238;2023-04-01T00:13:09;98644.50;;;9.10;100.00
19210;BME280;9738;51.654;14.238;2023-04-01T00:15:36;98637.59;;;9.16;100.00
19210;BME280;9738;51.654;14.238;2023-04-01T00:18:02;98636.22;;;9.20;100.00
19210;BME280;9738;51.654;14.238;2023-04-01T00:20:28;98635.88;;;9.23;100.00
19210;BME280;9738;51.654;14.238;2023-04-01T00:22:54;98637.50;;;9.24;100.00
19210;BME280;9738;51.654;14.238;2023-04-01T00:25:21;98623.16;;;9.25;100.00
19210;BME280;9738;51.654;14.238;2023-04-01T00:27:47;98631.72;;;9.20;100.00
19210;BME280;9738;51.654;14.238;2023-04-01T00:30:13;98631.72;;;9.20;100.00
19210;BME280;9738;51.654;14.238;2023-04-01T00:32:40;98633.81;;;9.25;100.00
19210;BME280;9738;51.654;14.238;2023-04-01T00:35:06;98629.72;;;9.23;100.00
19210;BME280;9738;51.654;14.238;2023-04-01T00:37:35;98632.53;;;9.21;100.00
19210;BME280;9738;51.654;14.238;2023-04-01T00:40:02;98627.06;;;9.23;100.00
19210;BME280;9738;51.654;14.238;2023-04-01T00:42:28;98635.03;;;9.23;100.00
19210;BME280;9738;51.654;14.238;2023-04-01T00:44:54;98632.63;;;9.28;100.00
19210;BME280;9738;51.654;14.238;2023-04-01T00:47:22;98635.47;;;9.26;100.00
19210;BME280;9738;51.654;14.238;2023-04-01T00:49:51;98635.94;;;9.30;100.00
19210;BME280;9738;51.654;14.238;2023-04-01T00:52:21;98637.84;;;9.36;100.00
19210;BME280;9738;51.654;14.238;2023-04-01T00:54:53;98633.63;;;9.27;100.00
19210;BME280;9738;51.654;14.238;2023-04-01T00:57:27;98638.22;;;9.33;100.00
19210;BME280;9738;51.654;14.238;2023-04-01T00:59:55;98639.50;;;9.37;100.00
19210;BME280;9738;51.654;14.238;2023-04-01T01:02:22;98632.75;;;9.41;100.00
19210;BME280;9738;51.654;14.238;2023-04-01T01:04:48;98635.69;;;9.46;100.00
19210;BME280;9738;51.654;14.238;2023-04-01T01:07:22;98636.53;;;9.46;100.00
19210;BME280;9738;51.654;14.238;2023-04-01T01:10:11;98643.41;;;9.41;100.00
19210;BME280;9738;51.654;14.238;2023-04-01T01:12:45;98645.47;;;9.39;100.00
19210;BME280;9738;51.654;14.238;2023-04-01T01:15:27;98644.09;;;9.43;100.00
19210;BME280;9738;51.654;14.238;2023-04-01T01:18:21;98638.84;;;9.35;100.00
19210;BME280;9738;51.654;14.238;2023-04-01T01:26:37;98640.44;;;9.29;100.00
19210;BME280;9738;51.654;14.238;2023-04-01T01:32:07;98635.66;;;9.25;100.00
19210;BME280;9738;51.654;14.238;2023-04-01T01:34:41;98642.66;;;9.26;100.00
19210;BME280;9738;51.654;14.238;2023-04-01T01:37:15;98642.66;;;9.26;100.00
19210;BME280;9738;51.654;14.238;2023-04-01T01:39:53;98642.84;;;9.24;100.00
19210;BME280;9738;51.654;14.238;2023-04-01T01:42:20;98641.53;;;9.20;100.00
19210;BME280;9738;51.654;14.238;2023-04-01T01:44:50;98641.34;;;9.21;100.00
19210;BME280;9738;51.654;14.238;2023-04-01T01:47:18;98642.00;;;9.24;100.00
19210;BME280;9738;51.654;14.238;2023-04-01T01:49:45;98640.81;;;9.26;100.00
19210;BME280;9738;51.654;14.238;2023-04-01T01:52:13;98644.00;;;9.21;100.00
19210;BME280;9738;51.654;14.238;2023-04-01T01:54:53;98643.38;;;9.19;100.00
19210;BME280;9738;51.654;14.238;2023-04-01T01:57:23;98639.06;;;9.18;100.00
19210;BME280;9738;51.654;14.238;2023-04-01T01:59:51;98646.88;;;9.20;100.00
19210;BME280;9738;51.654;14.238;2023-04-01T02:02:18;98641.13;;;9.16;100.00
19210;BME280;9738;51.654;14.238;2023-04-01T02:04:45;98641.94;;;9.17;100.00
19210;BME280;9738;51.654;14.238;2023-04-01T02:07:28;98638.59;;;9.15;100.00
19210;BME280;9738;51.654;14.238;2023-04-01T02:09:57;98642.75;;;9.17;100.00
19210;BME280;9738;51.654;14.238;2023-04-01T02:12:24;98645.50;;;9.09;100.00
19210;BME280;9738;51.654;14.238;2023-04-01T02:14:57;98640.66;;;9.13;100.00
19210;BME280;9738;51.654;14.238;2023-04-01T02:17:27;98641.84;;;9.10;100.00
19210;BME280;9738;51.654;14.238;2023-04-01T02:20:09;98644.03;;;9.07;100.00
19210;BME280;9738;51.654;14.238;2023-04-01T02:22:41;98644.44;;;9.04;100.00
19210;BME280;9738;51.654;14.238;2023-04-01T02:25:14;98647.66;;;8.99;100.00
19210;BME280;9738;51.654;14.238;2023-04-01T02:27:43;98642.94;;;9.01;100.00
19210;BME280;9738;51.654;14.238;2023-04-01T02:30:11;98648.75;;;9.05;100.00
19210;BME280;9738;51.654;14.238;2023-04-01T02:32:38;98651.41;;;9.05;100.00
19210;BME280;9738;51.654;14.238;2023-04-01T02:35:14;98647.25;;;9.02;100.00
19210;BME280;9738;51.654;14.238;2023-04-01T02:37:41;98651.56;;;9.03;100.00
19210;BME280;9738;51.654;14.238;2023-04-01T02:40:11;98654.91;;;9.05;100.00
19210;BME280;9738;51.654;14.238;2023-04-01T02:42:37;98660.56;;;9.02;100.00
19210;BME280;9738;51.654;14.238;2023-04-01T02:45:03;98669.22;;;9.04;100.00
19210;BME280;9738;51.654;14.238;2023-04-01T02:47:30;98669.66;;;9.08;100.00
19210;BME280;9738;51.654;14.238;2023-04-01T02:49:56;98667.19;;;9.06;100.00
19210;BME280;9738;51.654;14.238;2023-04-01T02:52:24;98665.16;;;9.08;100.00
19210;BME280;9738;51.654;14.238;2023-04-01T02:54:51;98670.88;;;9.05;100.00
19210;BME280;9738;51.654;14.238;2023-04-01T02:57:16;98667.19;;;9.06;100.00
19210;BME280;9738;51.654;14.238;2023-04-01T02:59:42;98666.56;;;9.04;100.00
19210;BME280;9738;51.654;14.238;2023-04-01T03:02:09;98673.88;;;9.02;100.00
19210;BME280;9738;51.654;14.238;2023-04-01T03:04:34;98672.25;;;9.01;100.00
19210;BME280;9738;51.654;14.238;2023-04-01T03:07:00;98671.97;;;8.96;100.00
19210;BME280;9738;51.654;14.238;2023-04-01T03:09:27;98679.78;;;8.98;100.00
19210;BME280;9738;51.654;14.238;2023-04-01T03:11:54;98680.41;;;9.00;100.00
19210;BME280;9738;51.654;14.238;2023-04-01T03:14:20;98679.88;;;9.04;100.00
19210;BME280;9738;51.654;14.238;2023-04-01T03:16:46;98677.75;;;9.00;100.00
19210;BME280;9738;51.654;14.238;2023-04-01T03:19:12;98674.72;;;9.03;100.00
19210;BME280;9738;51.654;14.238;2023-04-01T03:21:38;98678.09;;;8.97;100.00
19210;BME280;9738;51.654;14.238;2023-04-01T03:24:04;98683.91;;;9.00;100.00
19210;BME280;9738;51.654;14.238;2023-04-01T03:26:30;98684.81;;;9.07;100.00
19210;BME280;9738;51.654;14.238;2023-04-01T03:28:56;98685.38;;;9.03;100.00
19210;BME280;9738;51.654;14.238;2023-04-01T03:31:23;98684.19;;;9.05;100.00
19210;BME280;9738;51.654;14.238;2023-04-01T03:33:49;98691.69;;;9.02;100.00
19210;BME280;9738;51.654;14.238;2023-04-01T03:36:15;98685.75;;;9.00;100.00
19210;BME280;9738;51.654;14.238;2023-04-01T03:38:42;98691.25;;;8.98;100.00
19210;BME280;9738;51.654;14.238;2023-04-01T03:41:12;98685.56;;;9.01;100.00
19210;BME280;9738;51.654;14.238;2023-04-01T03:43:39;98693.09;;;8.98;100.00
19210;BME280;9738;51.654;14.238;2023-04-01T03:46:05;98686.94;;;8.97;100.00
19210;BME280;9738;51.654;14.238;2023-04-01T03:48:31;98682.88;;;9.01;100.00
19210;BME280;9738;51.654;14.238;2023-04-01T03:50:57;98697.22;;;9.00;100.00
19210;BME280;9738;51.654;14.238;2023-04-01T03:53:23;98689.88;;;9.02;100.00
19210;BME280;9738;51.654;14.238;2023-04-01T03:55:49;98697.69;;;9.04;100.00
19210;BME280;9738;51.654;14.238;2023-04-01T03:58:17;98702.00;;;9.05;100.00
19210;BME280;9738;51.654;14.238;2023-04-01T04:00:43;98696.69;;;9.05;100.00
19210;BME280;9738;51.654;14.238;2023-04-01T04:03:09;98699.78;;;9.08;100.00
19210;BME280;9738;51.654;14.238;2023-04-01T04:05:35;98703.84;;;9.04;100.00
19210;BME280;9738;51.654;14.238;2023-04-01T04:08:01;98706.50;;;9.04;100.00
19210;BME280;9738;51.654;14.238;2023-04-01T04:10:27;98707.34;;;9.05;100.00
19210;BME280;9738;51.654;14.238;2023-04-01T04:12:55;98706.75;;;9.09;100.00
19210;BME280;9738;51.654;14.238;2023-04-01T04:15:22;98711.53;;;9.14;100.00
19210;BME280;9738;51.654;14.238;2023-04-01T04:17:48;98723.41;;;9.11;100.00
19210;BME280;9738;51.654;14.238;2023-04-01T04:20:14;98713.75;;;9.10;100.00
19210;BME280;9738;51.654;14.238;2023-04-01T04:22:41;98721.09;;;9.08;100.00
19210;BME280;9738;51.654;14.238;2023-04-01T04:25:07;98723.13;;;9.06;100.00
19210;BME280;9738;51.654;14.238;2023-04-01T04:27:33;98725.59;;;9.08;100.00
19210;BME280;9738;51.654;14.238;2023-04-01T04:30:00;98727.97;;;9.03;100.00
19210;BME280;9738;51.654;14.238;2023-04-01T04:32:26;98720.38;;;9.00;100.00
19210;BME280;9738;51.654;14.238;2023-04-01T04:34:51;98721.56;;;8.97;100.00
19210;BME280;9738;51.654;14.238;2023-04-01T04:37:18;98733.19;;;8.96;100.00
19210;BME280;9738;51.654;14.238;2023-04-01T04:39:43;98722.75;;;8.94;100.00
19210;BME280;9738;51.654;14.238;2023-04-01T04:42:09;98728.25;;;8.93;100.00
19210;BME280;9738;51.654;14.238;2023-04-01T04:44:36;98733.59;;;8.93;100.00
19210;BME280;9738;51.654;14.238;2023-04-01T04:47:01;98742.19;;;8.95;100.00
19210;BME280;9738;51.654;14.238;2023-04-01T04:49:27;98738.91;;;8.93;100.00
19210;BME280;9738;51.654;14.238;2023-04-01T04:51:54;98733.69;;;8.85;100.00
19210;BME280;9738;51.654;14.238;2023-04-01T04:54:19;98746.16;;;8.84;100.00
19210;BME280;9738;51.654;14.238;2023-04-01T04:56:45;98741.19;;;8.81;100.00
19210;BME280;9738;51.654;14.238;2023-04-01T04:59:12;98747.53;;;8.80;100.00
19210;BME280;9738;51.654;14.238;2023-04-01T05:01:38;98746.97;;;8.85;100.00
19210;BME280;9738;51.654;14.238;2023-04-01T05:04:04;98747.97;;;8.84;100.00
19210;BME280;9738;51.654;14.238;2023-04-01T05:06:30;98750.56;;;8.92;100.00
19210;BME280;9738;51.654;14.238;2023-04-01T05:08:56;98746.34;;;8.98;100.00
19210;BME280;9738;51.654;14.238;2023-04-01T05:11:22;98749.84;;;8.98;100.00
19210;BME280;9738;51.654;14.238;2023-04-01T05:13:49;98753.53;;;8.97;100.00
19210;BME280;9738;51.654;14.238;2023-04-01T05:16:18;98746.50;;;8.96;100.00
19210;BME280;9738;51.654;14.238;2023-04-01T05:18:44;98750.56;;;8.92;100.00
19210;BME280;9738;51.654;14.238;2023-04-01T05:21:12;98761.22;;;8.92;100.00
19210;BME280;9738;51.654;14.238;2023-04-01T05:23:38;98758.00;;;8.97;100.00
19210;BME280;9738;51.654;14.238;2023-04-01T05:26:11;98763.31;;;8.97;100.00
19210;BME280;9738;51.654;14.238;2023-04-01T05:28:38;98758.47;;;9.00;100.00
19210;BME280;9738;51.654;14.238;2023-04-01T05:31:05;98762.78;;;9.01;100.00
19210;BME280;9738;51.654;14.238;2023-04-01T05:33:32;98760.84;;;8.95;100.00
19210;BME280;9738;51.654;14.238;2023-04-01T05:36:14;98770.66;;;8.94;100.00
19210;BME280;9738;51.654;14.238;2023-04-01T05:38:41;98768.19;;;8.93;100.00
19210;BME280;9738;51.654;14.238;2023-04-01T05:41:15;98768.19;;;8.93;100.00
19210;BME280;9738;51.654;14.238;2023-04-01T05:43:41;98773.97;;;8.97;100.00
19210;BME280;9738;51.654;14.238;2023-04-01T05:46:07;98778.47;;;8.96;100.00
19210;BME280;9738;51.654;14.238;2023-04-01T05:48:34;98774.97;;;8.96;100.00
19210;BME280;9738;51.654;14.238;2023-04-01T05:51:03;98776.19;;;8.93;100.00
19210;BME280;9738;51.654;14.238;2023-04-01T05:53:30;98782.63;;;8.99;100.00
19210;BME280;9738;51.654;14.238;2023-04-01T05:55:56;98778.75;;;9.01;100.00
19210;BME280;9738;51.654;14.238;2023-04-01T05:58:22;98786.75;;;9.01;100.00
19210;BME280;9738;51.654;14.238;2023-04-01T06:00:48;98786.09;;;8.99;100.00
19210;BME280;9738;51.654;14.238;2023-04-01T06:03:14;98787.22;;;9.05;100.00
19210;BME280;9738;51.654;14.238;2023-04-01T06:05:42;98795.22;;;9.05;100.00
19210;BME280;9738;51.654;14.238;2023-04-01T06:08:17;98793.56;;;9.04;100.00
19210;BME280;9738;51.654;14.238;2023-04-01T06:13:41;98800.34;;;9.06;100.00
19210;BME280;9738;51.654;14.238;2023-04-01T06:19:12;98801.16;;;9.07;100.00
19210;BME280;9738;51.654;14.238;2023-04-01T06:22:08;98804.47;;;9.09;100.00
19210;BME280;9738;51.654;14.238;2023-04-01T06:24:53;98806.59;;;9.13;100.00
19210;BME280;9738;51.654;14.238;2023-04-01T06:27:45;98800.94;;;9.16;100.00
19210;BME280;9738;51.654;14.238;2023-04-01T06:30:24;98809.16;;;9.21;100.00
19210;BME280;9738;51.654;14.238;2023-04-01T06:38:57;98809.44;;;9.41;100.00
19210;BME280;9738;51.654;14.238;2023-04-01T06:41:55;98813.50;;;9.52;100.00
19210;BME280;9738;51.654;14.238;2023-04-01T06:44:43;98820.59;;;9.45;100.00
19210;BME280;9738;51.654;14.238;2023-04-01T06:50:26;98817.66;;;9.55;100.00
19210;BME280;9738;51.654;14.238;2023-04-01T06:53:18;98815.81;;;9.55;100.00
19210;BME280;9738;51.654;14.238;2023-04-01T06:55:55;98828.47;;;9.53;100.00
19210;BME280;9738;51.654;14.238;2023-04-01T06:58:26;98820.31;;;9.55;100.00
19210;BME280;9738;51.654;14.238;2023-04-01T07:00:57;98820.13;;;9.56;100.00
19210;BME280;9738;51.654;14.238;2023-04-01T07:03:32;98823.31;;;9.66;100.00
19210;BME280;9738;51.654;14.238;2023-04-01T07:06:05;98817.19;;;9.81;100.00
19210;BME280;9738;51.654;14.238;2023-04-01T07:08:35;98814.84;;;9.92;100.00
19210;BME280;9738;51.654;14.238;2023-04-01T07:11:04;98824.84;;;10.05;100.00
19210;BME280;9738;51.654;14.238;2023-04-01T07:13:38;98822.56;;;10.02;100.00
19210;BME280;9738;51.654;14.238;2023-04-01T07:21:47;98827.28;;;10.21;100.00
19210;BME280;9738;51.654;14.238;2023-04-01T07:24:31;98822.59;;;10.23;100.00
19210;BME280;9738;51.654;14.238;2023-04-01T07:26:59;98828.84;;;10.31;100.00
19210;BME280;9738;51.654;14.238;2023-04-01T07:29:26;98829.09;;;10.36;100.00
19210;BME280;9738;51.654;14.238;2023-04-01T07:32:05;98834.34;;;10.44;100.00
19210;BME280;9738;51.654;14.238;2023-04-01T07:37:15;98839.16;;;10.55;100.00
19210;BME280;9738;51.654;14.238;2023-04-01T07:45:01;98843.22;;;10.94;100.00
19210;BME280;9738;51.654;14.238;2023-04-01T07:56:22;98839.16;;;11.26;100.00
19210;BME280;9738;51.654;14.238;2023-04-01T08:02:13;98848.28;;;11.10;100.00
19210;BME280;9738;51.654;14.238;2023-04-01T08:14:14;98852.75;;;11.03;100.00
19210;BME280;9738;51.654;14.238;2023-04-01T08:16:57;98851.53;;;11.05;100.00
19210;BME280;9738;51.654;14.238;2023-04-01T08:22:27;98860.69;;;11.18;100.00
19210;BME280;9738;51.654;14.238;2023-04-01T08:24:59;98860.19;;;11.35;100.00
19210;BME280;9738;51.654;14.238;2023-04-01T08:27:37;98851.91;;;11.52;100.00
19210;BME280;9738;51.654;14.238;2023-04-01T08:30:18;98850.50;;;11.62;100.00
19210;BME280;9738;51.654;14.238;2023-04-01T08:32:48;98858.09;;;11.59;100.00
19210;BME280;9738;51.654;14.238;2023-04-01T08:35:26;98854.41;;;11.60;100.00
19210;BME280;9738;51.654;14.238;2023-04-01T08:37:55;98856.84;;;11.55;100.00
19210;BME280;9738;51.654;14.238;2023-04-01T08:40:37;98866.53;;;11.62;100.00
19210;BME280;9738;51.654;14.238;2023-04-01T08:46:01;98861.84;;;11.64;100.00
19210;BME280;9738;51.654;14.238;2023-04-01T08:49:05;98868.44;;;11.69;100.00
19210;BME280;9738;51.654;14.238;2023-04-01T09:00:04;98874.53;;;11.56;100.00
19210;BME280;9738;51.654;14.238;2023-04-01T09:03:13;98876.38;;;11.55;100.00
19210;BME280;9738;51.654;14.238;2023-04-01T09:11:43;98877.69;;;11.38;100.00
19210;BME280;9738;51.654;14.238;2023-04-01T09:17:20;98883.06;;;11.45;100.00
19210;BME280;9738;51.654;14.238;2023-04-01T09:25:56;98883.31;;;11.50;100.00
19210;BME280;9738;51.654;14.238;2023-04-01T09:31:56;98891.69;;;11.40;100.00
19210;BME280;9738;51.654;14.238;2023-04-01T09:34:37;98897.72;;;11.49;100.00
19210;BME280;9738;51.654;14.238;2023-04-01T09:42:55;98893.16;;;11.43;100.00
19210;BME280;9738;51.654;14.238;2023-04-01T09:45:46;98898.75;;;11.48;100.00
19210;BME280;9738;51.654;14.238;2023-04-01T09:51:26;98905.59;;;11.57;100.00
19210;BME280;9738;51.654;14.238;2023-04-01T09:54:04;98908.41;;;11.49;100.00
19210;BME280;9738;51.654;14.238;2023-04-01T09:59:38;98907.63;;;11.55;100.00
19210;BME280;9738;51.654;14.238;2023-04-01T10:02:38;98906.00;;;11.54;100.00
19210;BME280;9738;51.654;14.238;2023-04-01T10:07:50;98914.47;;;11.64;100.00
19210;BME280;9738;51.654;14.238;2023-04-01T10:16:17;98915.88;;;11.53;100.00
19210;BME280;9738;51.654;14.238;2023-04-01T10:25:01;98922.66;;;11.56;100.00
19210;BME280;9738;51.654;14.238;2023-04-01T10:27:51;98923.31;;;11.58;100.00
19210;BME280;9738;51.654;14.238;2023-04-01T10:54:47;98920.84;;;11.84;100.00
19210;BME280;9738;51.654;14.238;2023-04-01T11:03:22;98925.91;;;12.14;100.00
19210;BME280;9738;51.654;14.238;2023-04-01T11:06:35;98927.53;;;12.08;100.00
19210;BME280;9738;51.654;14.238;2023-04-01T11:09:56;98929.72;;;11.92;100.00
19210;BME280;9738;51.654;14.238;2023-04-01T11:12:56;98933.06;;;11.72;100.00
19210;BME280;9738;51.654;14.238;2023-04-01T11:16:11;98929.38;;;11.73;100.00
19210;BME280;9738;51.654;14.238;2023-04-01T11:24:21;98932.38;;;11.63;100.00
19210;BME280;9738;51.654;14.238;2023-04-01T11:27:05;98927.38;;;11.54;100.00
19210;BME280;9738;51.654;14.238;2023-04-01T11:29:54;98934.38;;;11.55;100.00
19210;BME280;9738;51.654;14.238;2023-04-01T11:32:43;98934.09;;;11.71;100.00
19210;BME280;9738;51.654;14.238;2023-04-01T11:35:55;98934.41;;;11.89;100.00
19210;BME280;9738;51.654;14.238;2023-04-01T11:49:55;98932.81;;;12.30;100.00
19210;BME280;9738;51.654;14.238;2023-04-01T11:55:32;98940.91;;;12.43;100.00
19210;BME280;9738;51.654;14.238;2023-04-01T12:07:21;98937.13;;;12.85;100.00
19210;BME280;9738;51.654;14.238;2023-04-01T12:15:30;98939.47;;;13.81;100.00
19210;BME280;9738;51.654;14.238;2023-04-01T12:18:18;98944.97;;;13.99;100.00
19210;BME280;9738;51.654;14.238;2023-04-01T12:26:43;98945.22;;;13.78;100.00
19210;BME280;9738;51.654;14.238;2023-04-01T12:29:28;98946.47;;;13.82;100.00
19210;BME280;9738;51.654;14.238;2023-04-01T12:32:15;98951.66;;;13.64;100.00
19210;BME280;9738;51.654;14.238;2023-04-01T12:38:18;98950.84;;;13.43;100.00
19210;BME280;9738;51.654;14.238;2023-04-01T12:40:45;98951.66;;;13.44;100.00
19210;BME280;9738;51.654;14.238;2023-04-01T12:43:52;98954.13;;;13.59;100.00
19210;BME280;9738;51.654;14.238;2023-04-01T12:49:26;98952.03;;;13.67;100.00
19210;BME280;9738;51.654;14.238;2023-04-01T12:52:01;98961.34;;;13.65;100.00
19210;BME280;9738;51.654;14.238;2023-04-01T12:57:53;98954.13;;;13.45;100.00
19210;BME280;9738;51.654;14.238;2023-04-01T13:11:50;98956.09;;;14.16;100.00
19210;BME280;9738;51.654;14.238;2023-04-01T13:19:58;98963.22;;;14.55;100.00
19210;BME280;9738;51.654;14.238;2023-04-01T13:22:52;98962.50;;;14.80;100.00
19210;BME280;9738;51.654;14.238;2023-04-01T13:28:19;98969.63;;;14.99;100.00
19210;BME280;9738;51.654;14.238;2023-04-01T13:33:40;98967.22;;;14.91;100.00
19210;BME280;9738;51.654;14.238;2023-04-01T13:36:19;98961.03;;;14.84;100.00
19210;BME280;9738;51.654;14.238;2023-04-01T13:38:59;98968.34;;;15.08;100.00
19210;BME280;9738;51.654;14.238;2023-04-01T13:41:40;98965.31;;;15.30;80.50
19210;BME280;9738;51.654;14.238;2023-04-01T13:46:52;98969.78;;;15.43;75.71
19210;BME280;9738;51.654;14.238;2023-04-01T13:55:29;98976.91;;;15.55;72.52
19210;BME280;9738;51.654;14.238;2023-04-01T14:04:01;98989.63;;;15.98;76.90
19210;BME280;9738;51.654;14.238;2023-04-01T14:06:52;98984.72;;;16.13;78.85
19210;BME280;9738;51.654;14.238;2023-04-01T14:26:00;99011.13;;;14.72;95.86
19210;BME280;9738;51.654;14.238;2023-04-01T14:39:59;99012.00;;;13.13;100.00
19210;BME280;9738;51.654;14.238;2023-04-01T14:48:07;99003.38;;;12.57;100.00
19210;BME280;9738;51.654;14.238;2023-04-01T14:50:43;98996.09;;;12.44;100.00
19210;BME280;9738;51.654;14.238;2023-04-01T14:55:53;99012.38;;;12.14;100.00
19210;BME280;9738;51.654;14.238;2023-04-01T14:58:23;99018.31;;;12.03;100.00
19210;BME280;9738;51.654;14.238;2023-04-01T15:01:10;99017.19;;;11.91;100.00
19210;BME280;9738;51.654;14.238;2023-04-01T15:04:12;99030.31;;;11.86;100.00
19210;BME280;9738;51.654;14.238;2023-04-01T15:06:58;99042.13;;;11.77;100.00
19210;BME280;9738;51.654;14.238;2023-04-01T15:12:32;99055.66;;;11.69;100.00
19210;BME280;9738;51.654;14.238;2023-04-01T15:17:55;99060.03;;;11.55;100.00
19210;BME280;9738;51.654;14.238;2023-04-01T15:20:47;99068.31;;;11.38;100.00
19210;BME280;9738;51.654;14.238;2023-04-01T15:23:45;99074.25;;;11.34;100.00
19210;BME280;9738;51.654;14.238;2023-04-01T15:26:29;99069.47;;;11.29;100.00
19210;BME280;9738;51.654;14.238;2023-04-01T15:29:01;99077.53;;;11.36;100.00
19210;BME280;9738;51.654;14.238;2023-04-01T15:34:29;99101.19;;;11.54;100.00
19210;BME280;9738;51.654;14.238;2023-04-01T15:37:10;99097.81;;;11.45;100.00
19210;BME280;9738;51.654;14.238;2023-04-01T15:45:42;99106.94;;;11.00;100.00
19210;BME280;9738;51.654;14.238;2023-04-01T15:48:20;99104.31;;;10.70;100.00
19210;BME280;9738;51.654;14.238;2023-04-01T15:51:02;99105.88;;;10.65;100.00
19210;BME280;9738;51.654;14.238;2023-04-01T15:59:26;99126.47;;;10.41;100.00
19210;BME280;9738;51.654;14.238;2023-04-01T16:02:17;99128.50;;;10.39;100.00
19210;BME280;9738;51.654;14.238;2023-04-01T16:13:22;99134.66;;;10.40;100.00
19210;BME280;9738;51.654;14.238;2023-04-01T16:18:49;99147.38;;;10.38;100.00
19210;BME280;9738;51.654;14.238;2023-04-01T16:23:55;99154.69;;;10.36;100.00
19210;BME280;9738;51.654;14.238;2023-04-01T16:26:39;99159.22;;;10.35;100.00
19210;BME280;9738;51.654;14.238;2023-04-01T16:31:52;99162.78;;;10.27;100.00
19210;BME280;9738;51.654;14.238;2023-04-01T16:34:29;99168.13;;;10.27;100.00
19210;BME280;9738;51.654;14.238;2023-04-01T16:37:05;99172.16;;;10.23;100.00
19210;BME280;9738;51.654;14.238;2023-04-01T16:39:50;99182.16;;;10.21;100.00
19210;BME280;9738;51.654;14.238;2023-04-01T16:47:51;99192.34;;;10.26;100.00
19210;BME280;9738;51.654;14.238;2023-04-01T16:50:24;99189.84;;;10.24;100.00
19210;BME280;9738;51.654;14.238;2023-04-01T16:53:09;99189.34;;;10.21;100.00
19210;BME280;9738;51.654;14.238;2023-04-01T16:55:52;99188.50;;;10.20;100.00
19210;BME280;9738;51.654;14.238;2023-04-01T16:58:26;99187.88;;;10.18;100.00
19210;BME280;9738;51.654;14.238;2023-04-01T17:01:14;99188.69;;;10.19;100.00
19210;BME280;9738;51.654;14.238;2023-04-01T17:03:45;99194.06;;;10.11;100.00
19210;BME280;9738;51.654;14.238;2023-04-01T17:06:19;99188.63;;;10.04;100.00
19210;BME280;9738;51.654;14.238;2023-04-01T17:17:15;99215.81;;;9.77;100.00
19210;BME280;9738;51.654;14.238;2023-04-01T17:28:20;99231.44;;;9.57;100.00
19210;BME280;9738;51.654;14.238;2023-04-01T17:38:40;99243.16;;;9.39;100.00
19210;BME280;9738;51.654;14.238;2023-04-01T17:44:30;99268.03;;;9.24;100.00
19210;BME280;9738;51.654;14.238;2023-04-01T17:47:12;99268.72;;;9.17;100.00
19210;BME280;9738;51.654;14.238;2023-04-01T17:52:55;99274.06;;;9.09;100.00
19210;BME280;9738;51.654;14.238;2023-04-01T17:58:19;99295.75;;;8.98;100.00
19210;BME280;9738;51.654;14.238;2023-04-01T18:06:32;99308.22;;;8.98;100.00
19210;BME280;9738;51.654;14.238;2023-04-01T18:09:08;99308.06;;;8.91;100.00
19210;BME280;9738;51.654;14.238;2023-04-01T18:14:54;99321.06;;;8.86;100.00
19210;BME280;9738;51.654;14.238;2023-04-01T18:17:42;99316.41;;;8.80;100.00
19210;BME280;9738;51.654;14.238;2023-04-01T18:22:54;99332.38;;;8.80;100.00
19210;BME280;9738;51.654;14.238;2023-04-01T18:25:37;99329.88;;;8.78;100.00
19210;BME280;9738;51.654;14.238;2023-04-01T18:28:18;99334.88;;;8.73;100.00
19210;BME280;9738;51.654;14.238;2023-04-01T18:31:10;99335.34;;;8.69;100.00
19210;BME280;9738;51.654;14.238;2023-04-01T18:39:16;99352.66;;;8.56;100.00
19210;BME280;9738;51.654;14.238;2023-04-01T18:42:05;99363.13;;;8.58;100.00
19210;BME280;9738;51.654;14.238;2023-04-01T18:44:44;99366.63;;;8.58;100.00
19210;BME280;9738;51.654;14.238;2023-04-01T18:47:38;99370.63;;;8.54;100.00
19210;BME280;9738;51.654;14.238;2023-04-01T18:50:33;99377.91;;;8.52;100.00
19210;BME280;9738;51.654;14.238;2023-04-01T18:53:37;99378.78;;;8.53;100.00
19210;BME280;9738;51.654;14.238;2023-04-01T18:56:09;99386.75;;;8.53;100.00
19210;BME280;9738;51.654;14.238;2023-04-01T18:58:54;99392.22;;;8.51;100.00
19210;BME280;9738;51.654;14.238;2023-04-01T19:01:37;99389.25;;;8.46;100.00
19210;BME280;9738;51.654;14.238;2023-04-01T19:04:16;99399.72;;;8.48;100.00
19210;BME280;9738;51.654;14.238;2023-04-01T19:06:48;99397.06;;;8.48;100.00
19210;BME280;9738;51.654;14.238;2023-04-01T19:09:43;99404.53;;;8.44;100.00
19210;BME280;9738;51.654;14.238;2023-04-01T19:26:15;99422.44;;;8.34;100.00
19210;BME280;9738;51.654;14.238;2023-04-01T19:37:17;99430.06;;;8.29;100.00
19210;BME280;9738;51.654;14.238;2023-04-01T19:45:32;99443.00;;;8.16;100.00
19210;BME280;9738;51.654;14.238;2023-04-01T19:48:44;99453.47;;;8.17;100.00
19210;BME280;9738;51.654;14.238;2023-04-01T19:54:04;99455.47;;;8.15;100.00
19210;BME280;9738;51.654;14.238;2023-04-01T19:56:46;99460.78;;;8.15;100.00
19210;BME280;9738;51.654;14.238;2023-04-01T19:59:36;99462.41;;;8.08;100.00
19210;BME280;9738;51.654;14.238;2023-04-01T20:02:33;99462.72;;;8.05;100.00
19210;BME280;9738;51.654;14.238;2023-04-01T20:05:30;99469.31;;;8.01;100.00
19210;BME280;9738;51.654;14.238;2023-04-01T20:08:12;99472.63;;;7.95;100.00
19210;BME280;9738;51.654;14.238;2023-04-01T20:11:28;99480.94;;;7.92;100.00
19210;BME280;9738;51.654;14.238;2023-04-01T20:16:58;99484.66;;;7.81;100.00